Time;durP1;ratioP1;P1;durP2;ratioP2;P2;SDS_P1;SDS_P2;PMS_P1;PMS_P2;Temp;Humidity;BMP_temperature;BMP_pressure;BME280_temperature;BME280_humidity;BME280_pressure;Samples;Min_cycle;Max_cycle;Signal;HPM_P1;HPM_P2
2020/12/27 00:00:24;;;;;;;1.00;1.00;;;9.10;59.00;;;;;;2079952;28;20041;-74
2020/12/27 00:01:29;;;;;;;1.00;1.00;;;9.10;59.00;;;;;;2079668;28;20025;-75
2020/12/27 00:02:30;;;;;;;1.08;0.98;;;9.10;59.00;;;;;;2080091;28;20030;-74
2020/12/27 00:03:30;;;;;;;0.90;0.90;;;9.10;59.00;;;;;;2080541;28;20033;-76
2020/12/27 00:04:31;;;;;;;1.10;1.00;;;9.10;59.00;;;;;;2080762;28;20082;-76
2020/12/27 00:05:33;;;;;;;0.93;0.93;;;9.10;59.00;;;;;;2069658;28;20053;-76
2020/12/27 00:06:34;;;;;;;1.10;1.10;;;9.10;59.00;;;;;;2069451;28;20109;-76
2020/12/27 00:07:35;;;;;;;1.00;1.00;;;9.10;59.00;;;;;;2080751;28;20042;-76
2020/12/27 00:08:35;;;;;;;0.90;0.90;;;9.10;59.10;;;;;;2079879;28;20475;-76
2020/12/27 00:09:40;;;;;;;1.23;1.20;;;9.10;59.00;;;;;;2080316;28;20088;-76
2020/12/27 00:10:40;;;;;;;1.00;1.00;;;9.10;59.00;;;;;;2080879;28;20108;-77
2020/12/27 00:11:41;;;;;;;1.23;1.17;;;9.10;59.00;;;;;;2080161;28;20087;-76
2020/12/27 00:12:41;;;;;;;1.10;1.10;;;9.00;59.00;;;;;;2080305;28;20029;-76
2020/12/27 00:13:42;;;;;;;0.90;0.90;;;9.10;59.00;;;;;;2080737;28;20068;-75
2020/12/27 00:14:43;;;;;;;1.27;1.13;;;9.10;59.00;;;;;;2080354;28;20105;-76
2020/12/27 00:15:43;;;;;;;1.20;1.20;;;9.00;58.90;;;;;;2071659;28;20109;-76
2020/12/27 00:16:44;;;;;;;1.30;1.10;;;9.00;59.00;;;;;;2071822;28;20030;-76
2020/12/27 00:17:45;;;;;;;1.20;1.20;;;9.00;58.90;;;;;;2079999;28;20107;-76
2020/12/27 00:18:45;;;;;;;1.30;1.30;;;9.00;58.90;;;;;;2079924;28;20029;-76
2020/12/27 00:19:46;;;;;;;1.00;1.00;;;9.00;58.90;;;;;;2079818;28;20048;-76
2020/12/27 00:20:46;;;;;;;1.00;1.00;;;9.00;58.90;;;;;;2081306;28;20109;-74
2020/12/27 00:21:47;;;;;;;1.20;1.20;;;9.00;58.90;;;;;;2081020;28;20036;-78
2020/12/27 00:22:49;;;;;;;1.08;1.08;;;9.00;58.90;;;;;;2081344;28;20029;-76
2020/12/27 00:23:49;;;;;;;0.90;0.90;;;9.00;58.80;;;;;;2079924;28;20053;-77
2020/12/27 00:24:50;;;;;;;0.90;0.90;;;9.00;58.80;;;;;;2080794;28;20033;-73
2020/12/27 00:25:51;;;;;;;1.10;1.10;;;9.00;58.80;;;;;;2081216;28;20925;-75
2020/12/27 00:26:51;;;;;;;1.23;1.23;;;9.00;58.80;;;;;;2080635;28;20030;-74
2020/12/27 00:27:52;;;;;;;1.17;1.17;;;9.00;58.80;;;;;;2081055;28;20060;-74
2020/12/27 00:28:52;;;;;;;1.08;1.08;;;9.00;58.80;;;;;;2063433;28;20074;-72
2020/12/27 00:29:53;;;;;;;1.00;1.00;;;9.00;58.80;;;;;;2063572;28;20655;-73
2020/12/27 00:30:54;;;;;;;0.90;0.90;;;9.00;58.80;;;;;;2079848;28;20033;-73
2020/12/27 00:31:55;;;;;;;1.00;1.00;;;9.00;58.80;;;;;;2080430;28;20041;-73
2020/12/27 00:32:56;;;;;;;1.10;1.10;;;8.90;58.80;;;;;;2080528;28;20029;-75
2020/12/27 00:33:57;;;;;;;1.10;1.10;;;8.90;58.70;;;;;;2081402;28;20042;-73
2020/12/27 00:34:59;;;;;;;1.08;1.08;;;8.90;58.70;;;;;;2076200;28;20345;-74
2020/12/27 00:36:01;;;;;;;1.08;1.08;;;8.90;58.70;;;;;;2075493;28;20637;-78
2020/12/27 00:37:01;;;;;;;1.00;1.00;;;8.90;58.70;;;;;;2081383;28;20463;-76
2020/12/27 00:38:02;;;;;;;0.98;0.98;;;8.90;58.70;;;;;;2080545;28;20049;-77
2020/12/27 00:39:06;;;;;;;1.00;1.00;;;8.90;58.70;;;;;;2075342;28;20026;-75
2020/12/27 00:40:07;;;;;;;1.10;1.10;;;8.90;58.70;;;;;;2076981;28;20372;-76
2020/12/27 00:41:07;;;;;;;1.00;1.00;;;8.90;58.70;;;;;;2081155;28;20033;-76
2020/12/27 00:42:08;;;;;;;1.00;1.00;;;8.90;58.70;;;;;;2080447;28;20088;-75
2020/12/27 00:43:09;;;;;;;1.10;1.10;;;8.80;58.70;;;;;;2072461;28;20088;-76
2020/12/27 00:44:09;;;;;;;0.93;0.93;;;8.90;58.70;;;;;;2071692;28;20025;-76
2020/12/27 00:45:10;;;;;;;1.00;1.00;;;8.80;58.70;;;;;;2072741;28;20070;-75
2020/12/27 00:46:10;;;;;;;1.08;1.08;;;8.90;58.80;;;;;;2063406;28;20033;-76
2020/12/27 00:47:11;;;;;;;1.10;1.10;;;8.80;58.70;;;;;;2071717;28;20034;-76
2020/12/27 00:48:11;;;;;;;1.08;1.08;;;8.90;58.70;;;;;;2081108;28;20467;-75
2020/12/27 00:49:12;;;;;;;0.85;0.85;;;8.80;58.70;;;;;;2080382;28;20120;-75
2020/12/27 00:50:12;;;;;;;1.08;1.08;;;8.80;58.70;;;;;;2080242;28;20022;-74
2020/12/27 00:51:13;;;;;;;0.90;0.90;;;8.90;58.70;;;;;;2080573;28;20112;-75
2020/12/27 00:52:14;;;;;;;1.00;1.00;;;8.80;58.60;;;;;;2080124;28;20025;-76
2020/12/27 00:53:14;;;;;;;1.05;1.05;;;8.80;58.70;;;;;;2067986;28;20010;-75
2020/12/27 00:54:15;;;;;;;1.00;1.00;;;8.80;58.70;;;;;;2059191;28;20523;-74
2020/12/27 00:55:15;;;;;;;1.20;1.10;;;8.80;58.60;;;;;;2072130;28;20399;-74
2020/12/27 00:56:16;;;;;;;1.15;1.15;;;8.80;58.60;;;;;;2071541;28;20022;-74
2020/12/27 00:57:17;;;;;;;1.30;1.20;;;8.80;58.60;;;;;;2071100;28;20029;-74
2020/12/27 00:58:17;;;;;;;1.10;1.10;;;8.80;58.60;;;;;;2072058;28;20021;-73
2020/12/27 00:59:19;;;;;;;1.00;1.00;;;8.80;58.60;;;;;;2068700;28;20034;-74
2020/12/27 01:00:19;;;;;;;1.00;1.00;;;8.80;58.60;;;;;;2080547;28;20037;-72
2020/12/27 01:01:20;;;;;;;1.10;1.10;;;8.80;58.60;;;;;;2079522;28;20442;-74
2020/12/27 01:02:20;;;;;;;1.13;1.13;;;8.70;58.60;;;;;;2078951;28;20435;-76
2020/12/27 01:03:21;;;;;;;1.00;1.00;;;8.80;58.60;;;;;;2079166;28;20080;-74
2020/12/27 01:04:22;;;;;;;1.00;1.00;;;8.80;58.60;;;;;;2079552;28;20034;-74
2020/12/27 01:05:23;;;;;;;1.00;1.00;;;8.70;58.50;;;;;;2071175;28;20026;-76
2020/12/27 01:06:25;;;;;;;1.00;1.00;;;8.70;58.50;;;;;;2072256;28;20112;-76
2020/12/27 01:07:25;;;;;;;1.00;1.00;;;8.70;58.60;;;;;;2071781;28;20038;-72
2020/12/27 01:08:30;;;;;;;1.10;1.00;;;8.70;58.60;;;;;;2070993;28;20476;-74
2020/12/27 01:09:30;;;;;;;1.02;1.02;;;8.70;58.60;;;;;;2071940;28;20107;-73
2020/12/27 01:10:31;;;;;;;1.25;1.15;;;8.70;58.60;;;;;;2071217;28;20096;-75
2020/12/27 01:11:32;;;;;;;1.00;1.00;;;8.70;58.60;;;;;;2063323;28;20041;-73
2020/12/27 01:12:32;;;;;;;1.17;1.17;;;8.70;58.70;;;;;;2071688;28;20054;-73
2020/12/27 01:13:33;;;;;;;1.10;1.10;;;8.70;58.70;;;;;;2080257;28;20037;-73
2020/12/27 01:14:34;;;;;;;1.10;1.10;;;8.70;58.70;;;;;;2071742;28;20599;-74
2020/12/27 01:15:38;;;;;;;1.10;1.02;;;8.70;58.80;;;;;;2071277;28;20109;-75
2020/12/27 01:16:39;;;;;;;1.48;1.38;;;8.70;58.80;;;;;;2079019;28;20129;-78
2020/12/27 01:17:39;;;;;;;3.92;1.20;;;8.70;58.80;;;;;;2068301;28;20023;-75
2020/12/27 01:18:42;;;;;;;1.38;1.20;;;8.70;58.90;;;;;;2067331;28;20104;-74
2020/12/27 01:19:43;;;;;;;1.00;1.00;;;8.70;58.90;;;;;;2087199;28;20021;-77
2020/12/27 01:20:43;;;;;;;1.20;1.10;;;8.70;58.90;;;;;;2080700;28;20034;-77
2020/12/27 01:21:44;;;;;;;0.98;0.98;;;8.70;58.90;;;;;;2080960;28;20044;-77
2020/12/27 01:22:44;;;;;;;1.10;1.10;;;8.70;58.90;;;;;;2079385;28;20036;-74
2020/12/27 01:23:45;;;;;;;1.00;1.00;;;8.70;59.00;;;;;;2080095;28;20045;-75
2020/12/27 01:24:45;;;;;;;1.00;1.00;;;8.70;59.00;;;;;;2072318;28;20026;-76
2020/12/27 01:25:47;;;;;;;1.10;1.10;;;8.70;59.00;;;;;;2072020;28;20072;-76
2020/12/27 01:26:48;;;;;;;1.00;1.00;;;8.70;59.00;;;;;;2079784;28;20030;-76
2020/12/27 01:27:49;;;;;;;1.00;1.00;;;8.70;59.00;;;;;;2081117;28;20764;-76
2020/12/27 01:28:49;;;;;;;1.65;1.20;;;8.70;59.00;;;;;;2081081;28;20045;-76
2020/12/27 01:29:50;;;;;;;1.25;0.98;;;8.70;59.00;;;;;;2075906;28;20522;-74
2020/12/27 01:30:50;;;;;;;1.00;1.00;;;8.70;58.90;;;;;;2067415;28;20354;-75
2020/12/27 01:31:51;;;;;;;1.67;0.90;;;8.70;59.00;;;;;;2071060;28;20438;-73
2020/12/27 01:32:51;;;;;;;1.80;1.20;;;8.70;59.00;;;;;;2072857;28;20022;-76
2020/12/27 01:33:53;;;;;;;1.10;1.10;;;8.70;58.90;;;;;;2073228;28;20060;-76
2020/12/27 01:34:53;;;;;;;1.00;1.00;;;8.80;59.00;;;;;;2080271;28;20033;-75
2020/12/27 01:35:54;;;;;;;1.10;1.10;;;8.80;59.00;;;;;;2080230;28;20068;-77
2020/12/27 01:36:55;;;;;;;1.10;1.10;;;8.80;59.00;;;;;;2064279;28;20055;-75
2020/12/27 01:37:55;;;;;;;1.10;1.10;;;8.80;59.00;;;;;;2064005;28;20070;-75
2020/12/27 01:38:57;;;;;;;1.00;1.00;;;8.80;59.10;;;;;;2080194;28;20045;-75
2020/12/27 01:39:58;;;;;;;0.98;0.95;;;8.80;59.00;;;;;;2072092;28;20026;-74
2020/12/27 01:41:04;;;;;;;0.90;0.90;;;8.80;59.00;;;;;;2072562;28;20018;-74
2020/12/27 01:42:05;;;;;;;1.10;1.10;;;8.80;58.90;;;;;;2080580;28;20032;-76
2020/12/27 01:43:05;;;;;;;1.38;1.27;;;8.80;58.90;;;;;;2073734;28;20026;-75
2020/12/27 01:44:09;;;;;;;1.00;1.00;;;8.80;58.90;;;;;;2071927;28;20060;-76
2020/12/27 01:45:09;;;;;;;0.90;0.90;;;8.80;58.90;;;;;;2071224;28;20121;-76
2020/12/27 01:46:10;;;;;;;1.13;1.13;;;8.80;58.90;;;;;;2071151;28;20022;-74
2020/12/27 01:47:20;;;;;;;1.20;1.20;;;8.80;58.90;;;;;;2069120;28;20030;-73
2020/12/27 01:48:22;;;;;;;1.17;1.05;;;8.80;58.80;;;;;;2080444;28;20487;-75
2020/12/27 01:49:24;;;;;;;1.23;0.90;;;8.80;58.80;;;;;;2079808;28;20056;-74
2020/12/27 01:50:24;;;;;;;0.90;0.90;;;8.90;58.90;;;;;;2079517;28;20025;-74
2020/12/27 01:51:25;;;;;;;1.23;1.10;;;8.90;58.80;;;;;;2079997;28;20060;-74
2020/12/27 01:52:26;;;;;;;0.88;0.88;;;8.90;58.70;;;;;;2069033;28;20809;-75
2020/12/27 01:53:27;;;;;;;0.80;0.80;;;8.90;58.70;;;;;;2068322;28;20530;-72
2020/12/27 01:54:27;;;;;;;1.00;1.00;;;8.90;58.70;;;;;;2080469;28;20044;-75
2020/12/27 01:55:31;;;;;;;0.80;0.80;;;8.90;58.70;;;;;;2081381;28;20048;-75
2020/12/27 01:56:38;;;;;;;0.80;0.80;;;8.90;58.70;;;;;;2081172;28;20104;-75
2020/12/27 01:58:00;;;;;;;1.08;1.00;;;8.90;58.70;;;;;;2081118;28;20029;-75
2020/12/27 01:59:09;;;;;;;1.25;1.00;;;8.90;58.60;;;;;;2079161;28;20105;-75
2020/12/27 02:00:10;;;;;;;0.80;0.80;;;8.90;58.60;;;;;;2081439;28;20080;-78
2020/12/27 02:01:11;;;;;;;0.90;0.90;;;8.90;58.60;;;;;;2070380;28;20136;-75
2020/12/27 02:02:13;;;;;;;1.00;1.00;;;8.90;58.60;;;;;;2071383;28;20053;-73
2020/12/27 02:03:14;;;;;;;0.88;0.88;;;9.00;58.60;;;;;;2079142;28;20100;-76
2020/12/27 02:04:15;;;;;;;0.90;0.90;;;8.90;58.60;;;;;;2070847;28;20435;-74
2020/12/27 02:05:16;;;;;;;0.80;0.80;;;8.90;58.60;;;;;;2071823;28;20137;-74
2020/12/27 02:06:16;;;;;;;0.85;0.85;;;8.90;58.60;;;;;;2071088;28;20017;-73
2020/12/27 02:07:17;;;;;;;1.10;1.00;;;8.90;58.60;;;;;;2070649;28;20010;-74
2020/12/27 02:08:19;;;;;;;0.80;0.80;;;8.90;58.60;;;;;;2080246;28;20029;-73
2020/12/27 02:09:21;;;;;;;0.82;0.82;;;8.90;58.60;;;;;;2080878;28;20142;-74
2020/12/27 02:10:22;;;;;;;1.13;0.90;;;8.90;58.60;;;;;;2072432;28;20476;-73
2020/12/27 02:11:25;;;;;;;0.95;0.95;;;8.90;58.50;;;;;;2064068;28;20066;-73
2020/12/27 02:12:25;;;;;;;0.90;0.90;;;9.00;58.60;;;;;;2072949;28;20026;-73
2020/12/27 02:13:26;;;;;;;0.88;0.85;;;8.90;58.50;;;;;;2080394;28;20029;-73
2020/12/27 02:14:27;;;;;;;0.80;0.80;;;8.90;58.60;;;;;;2082078;28;20037;-73
2020/12/27 02:15:27;;;;;;;1.02;0.73;;;8.90;58.50;;;;;;2072732;28;20069;-73
2020/12/27 02:16:30;;;;;;;0.73;0.73;;;8.90;58.60;;;;;;2071546;28;20048;-73
2020/12/27 02:17:30;;;;;;;0.90;0.90;;;9.00;58.60;;;;;;2081506;28;20040;-73
2020/12/27 02:18:33;;;;;;;0.90;0.90;;;9.00;58.60;;;;;;2081479;28;20025;-75
2020/12/27 02:19:33;;;;;;;1.10;1.00;;;9.00;58.50;;;;;;2081645;28;20040;-74
2020/12/27 02:20:34;;;;;;;0.70;0.70;;;9.00;58.60;;;;;;2081898;28;20360;-74
2020/12/27 02:21:34;;;;;;;0.60;0.60;;;9.00;58.50;;;;;;2081650;28;20057;-75
2020/12/27 02:22:35;;;;;;;0.70;0.70;;;9.00;58.50;;;;;;2081461;28;20033;-75
2020/12/27 02:23:37;;;;;;;0.90;0.90;;;9.00;58.50;;;;;;2082067;28;20088;-76
2020/12/27 02:24:37;;;;;;;0.88;0.88;;;9.00;58.50;;;;;;2076234;28;20460;-74
2020/12/27 02:25:38;;;;;;;0.75;0.75;;;9.00;58.50;;;;;;2076899;28;20030;-74
2020/12/27 02:26:38;;;;;;;0.90;0.90;;;9.00;58.50;;;;;;2081654;28;20037;-75
2020/12/27 02:27:39;;;;;;;0.80;0.80;;;9.00;58.50;;;;;;2081269;28;20029;-74
2020/12/27 02:28:40;;;;;;;0.80;0.80;;;9.00;58.50;;;;;;2072083;28;20076;-74
2020/12/27 02:29:41;;;;;;;0.80;0.80;;;9.00;58.50;;;;;;2064885;28;20129;-76
2020/12/27 02:30:41;;;;;;;0.80;0.80;;;9.00;59.00;;;;;;2068637;28;20082;-74
2020/12/27 02:31:42;;;;;;;0.80;0.80;;;9.00;58.50;;;;;;2080879;28;20053;-75
2020/12/27 02:32:42;;;;;;;0.73;0.73;;;9.00;58.50;;;;;;2073426;28;20029;-75
2020/12/27 02:33:43;;;;;;;0.95;0.85;;;9.00;58.60;;;;;;2072373;28;20483;-75
2020/12/27 02:34:43;;;;;;;0.85;0.85;;;9.00;58.60;;;;;;2072318;28;20080;-76
2020/12/27 02:35:44;;;;;;;0.80;0.80;;;9.00;58.50;;;;;;2073396;28;20554;-74
2020/12/27 02:36:44;;;;;;;0.80;0.80;;;9.10;58.50;;;;;;2072146;28;20026;-74
2020/12/27 02:37:48;;;;;;;0.70;0.70;;;9.00;58.50;;;;;;2081292;28;20044;-75
2020/12/27 02:38:49;;;;;;;0.65;0.65;;;9.00;58.40;;;;;;2081129;28;20036;-74
2020/12/27 02:39:49;;;;;;;0.73;0.73;;;9.00;58.50;;;;;;2081252;28;20033;-73
2020/12/27 02:40:50;;;;;;;0.70;0.70;;;9.00;58.40;;;;;;2081589;28;20083;-76
2020/12/27 02:41:51;;;;;;;0.80;0.80;;;9.00;58.40;;;;;;2069543;28;20049;-77
2020/12/27 02:42:51;;;;;;;0.70;0.70;;;9.10;58.40;;;;;;2072033;28;20108;-75
2020/12/27 02:43:52;;;;;;;0.70;0.70;;;9.00;58.40;;;;;;2072564;28;20022;-76
2020/12/27 02:46:03;;;;;;;0.73;0.73;;;9.00;58.30;;;;;;2080891;28;20087;-75
2020/12/27 02:47:04;;;;;;;0.65;0.65;;;9.00;58.30;;;;;;2081692;28;20125;-74
2020/12/27 02:48:05;;;;;;;0.70;0.70;;;9.00;58.20;;;;;;2081354;28;20025;-74
2020/12/27 02:49:06;;;;;;;0.60;0.60;;;9.00;58.20;;;;;;2071836;28;20100;-74
2020/12/27 02:50:09;;;;;;;0.80;0.80;;;9.00;58.20;;;;;;2072673;28;20467;-74
2020/12/27 02:51:11;;;;;;;0.60;0.60;;;9.00;58.20;;;;;;2081110;28;20029;-73
2020/12/27 02:52:12;;;;;;;0.70;0.68;;;9.00;58.20;;;;;;2080660;28;20014;-74
2020/12/27 02:53:12;;;;;;;0.70;0.70;;;9.10;58.20;;;;;;2080589;28;20821;-76
2020/12/27 02:54:13;;;;;;;0.70;0.70;;;9.00;58.10;;;;;;2080898;28;20103;-73
2020/12/27 02:55:14;;;;;;;0.73;0.73;;;9.00;58.10;;;;;;2081162;28;20013;-74
2020/12/27 02:56:19;;;;;;;0.80;0.80;;;9.00;58.10;;;;;;2080621;28;20029;-75
2020/12/27 02:57:19;;;;;;;0.60;0.60;;;9.00;58.10;;;;;;2081398;28;20044;-77
2020/12/27 02:58:20;;;;;;;0.60;0.60;;;9.00;58.10;;;;;;2081294;28;20013;-74
2020/12/27 02:59:21;;;;;;;0.70;0.70;;;9.00;58.10;;;;;;2080401;28;20084;-75
2020/12/27 03:00:21;;;;;;;0.70;0.70;;;9.00;58.10;;;;;;2081480;28;20047;-75
2020/12/27 03:01:22;;;;;;;0.63;0.63;;;9.00;58.10;;;;;;2080376;28;20102;-74
2020/12/27 03:02:22;;;;;;;0.70;0.70;;;9.00;58.10;;;;;;2080754;28;20122;-75
2020/12/27 03:03:23;;;;;;;0.60;0.60;;;9.00;58.10;;;;;;2081033;28;20034;-74
2020/12/27 03:04:24;;;;;;;0.75;0.75;;;9.00;58.10;;;;;;2080482;28;20413;-73
2020/12/27 03:05:24;;;;;;;0.77;0.77;;;9.00;58.10;;;;;;2075179;28;20121;-74
2020/12/27 03:06:25;;;;;;;0.80;0.80;;;9.00;58.10;;;;;;2076316;28;20775;-75
2020/12/27 03:07:25;;;;;;;1.00;0.68;;;9.00;58.10;;;;;;2072339;28;20014;-77
2020/12/27 03:08:27;;;;;;;0.70;0.70;;;9.00;58.10;;;;;;2081884;28;20061;-76
2020/12/27 03:09:27;;;;;;;0.70;0.70;;;9.00;58.20;;;;;;2080638;28;20080;-77
2020/12/27 03:10:28;;;;;;;0.70;0.70;;;9.00;58.10;;;;;;2075360;28;20056;-75
2020/12/27 03:11:28;;;;;;;0.90;0.90;;;9.00;58.10;;;;;;2076890;28;20116;-73
2020/12/27 03:12:29;;;;;;;0.70;0.70;;;9.00;58.10;;;;;;2081253;28;20036;-74
2020/12/27 03:13:31;;;;;;;0.65;0.65;;;9.00;58.10;;;;;;2076559;28;20049;-74
2020/12/27 03:14:32;;;;;;;0.60;0.60;;;9.00;58.10;;;;;;2068965;28;20108;-74
2020/12/27 03:15:33;;;;;;;0.73;0.73;;;9.00;58.10;;;;;;2072889;28;20026;-75
2020/12/27 03:16:33;;;;;;;0.60;0.60;;;9.00;58.10;;;;;;2071490;28;20527;-76
2020/12/27 03:17:34;;;;;;;0.77;0.77;;;9.00;58.20;;;;;;2072544;28;20025;-73
2020/12/27 03:18:34;;;;;;;1.38;0.90;;;9.00;58.20;;;;;;2080093;28;20021;-74
2020/12/27 03:19:35;;;;;;;1.02;0.70;;;9.00;58.20;;;;;;2079981;28;20665;-74
2020/12/27 03:20:35;;;;;;;0.70;0.70;;;9.00;58.20;;;;;;2080153;28;20467;-73
2020/12/27 03:21:36;;;;;;;0.80;0.80;;;9.00;58.20;;;;;;2079544;28;20032;-74
2020/12/27 03:22:36;;;;;;;0.70;0.70;;;9.00;58.20;;;;;;2080499;28;20703;-74
2020/12/27 03:23:37;;;;;;;0.80;0.80;;;9.00;58.20;;;;;;2080976;28;20079;-74
2020/12/27 03:24:38;;;;;;;0.70;0.70;;;9.00;58.20;;;;;;2069580;28;20412;-74
2020/12/27 03:25:38;;;;;;;0.90;0.90;;;9.00;58.20;;;;;;2069423;28;20449;-74
2020/12/27 03:26:39;;;;;;;0.80;0.80;;;9.10;58.20;;;;;;2072772;28;20018;-74
2020/12/27 03:27:39;;;;;;;0.80;0.80;;;9.00;58.20;;;;;;2072601;28;20038;-75
2020/12/27 03:28:40;;;;;;;0.70;0.70;;;9.00;58.20;;;;;;2080404;28;20061;-75
2020/12/27 03:29:40;;;;;;;0.70;0.70;;;9.00;58.30;;;;;;2081377;28;20059;-74
2020/12/27 03:30:42;;;;;;;0.60;0.60;;;9.10;58.30;;;;;;2080714;28;20057;-73
2020/12/27 03:31:43;;;;;;;0.80;0.80;;;9.10;58.30;;;;;;2079591;28;20029;-74
2020/12/27 03:32:43;;;;;;;0.82;0.77;;;9.10;58.30;;;;;;2080330;28;20029;-74
2020/12/27 03:33:44;;;;;;;0.70;0.70;;;9.10;58.30;;;;;;2068674;28;20026;-73
2020/12/27 03:34:45;;;;;;;0.80;0.70;;;9.10;58.30;;;;;;2071068;28;20056;-75
2020/12/27 03:35:45;;;;;;;0.60;0.60;;;9.10;58.30;;;;;;2080071;28;20095;-75
2020/12/27 03:36:47;;;;;;;0.80;0.80;;;9.10;58.30;;;;;;2080546;28;20052;-74
2020/12/27 03:37:47;;;;;;;0.70;0.70;;;9.10;58.30;;;;;;2080518;28;20025;-74
2020/12/27 03:38:52;;;;;;;0.70;0.70;;;9.10;58.30;;;;;;2080727;28;20026;-74
2020/12/27 03:39:52;;;;;;;0.70;0.70;;;9.10;58.30;;;;;;2080465;28;20018;-74
2020/12/27 03:40:53;;;;;;;0.75;0.75;;;9.10;58.30;;;;;;2080828;28;20113;-74
2020/12/27 03:41:54;;;;;;;0.70;0.70;;;9.10;58.30;;;;;;2080555;28;20084;-74
2020/12/27 03:42:54;;;;;;;0.73;0.70;;;9.10;58.30;;;;;;2080123;28;20033;-74
2020/12/27 03:43:55;;;;;;;0.80;0.80;;;9.10;58.30;;;;;;2068262;28;20411;-73
2020/12/27 03:44:55;;;;;;;0.65;0.65;;;9.10;58.30;;;;;;2069201;28;20448;-74
2020/12/27 03:45:56;;;;;;;0.85;0.73;;;9.10;58.30;;;;;;2067987;28;20034;-74
2020/12/27 03:46:57;;;;;;;0.70;0.70;;;9.10;58.30;;;;;;2068332;28;20026;-75
2020/12/27 03:47:57;;;;;;;0.70;0.70;;;9.10;58.30;;;;;;2069895;28;20078;-76
2020/12/27 03:48:58;;;;;;;0.60;0.60;;;9.10;58.30;;;;;;2070762;28;20038;-76
2020/12/27 03:49:59;;;;;;;0.60;0.60;;;9.10;58.20;;;;;;2071703;28;20458;-75
2020/12/27 03:50:59;;;;;;;0.70;0.70;;;9.20;58.30;;;;;;2071602;28;20034;-72
2020/12/27 03:52:00;;;;;;;0.70;0.70;;;9.20;58.30;;;;;;2080737;28;20029;-74
2020/12/27 03:53:00;;;;;;;0.80;0.80;;;9.20;58.30;;;;;;2081316;28;20021;-76
2020/12/27 03:54:01;;;;;;;0.70;0.70;;;9.20;58.30;;;;;;2081052;28;20033;-75
2020/12/27 03:55:02;;;;;;;0.80;0.80;;;9.20;58.20;;;;;;2063767;28;20023;-74
2020/12/27 03:56:03;;;;;;;1.60;0.70;;;9.20;58.20;;;;;;2064165;28;20435;-74
2020/12/27 03:57:04;;;;;;;0.70;0.70;;;9.20;58.20;;;;;;2080940;28;20025;-75
2020/12/27 03:58:04;;;;;;;0.70;0.70;;;9.20;58.20;;;;;;2079961;28;20484;-75
2020/12/27 03:59:05;;;;;;;0.60;0.60;;;9.20;58.30;;;;;;2080281;28;20038;-75
2020/12/27 04:00:05;;;;;;;0.65;0.65;;;9.20;58.30;;;;;;2071708;28;20029;-75
2020/12/27 04:01:06;;;;;;;0.70;0.70;;;9.20;58.30;;;;;;2071472;28;20017;-76
2020/12/27 04:02:07;;;;;;;0.60;0.60;;;9.20;58.30;;;;;;2068786;28;20121;-75
2020/12/27 04:03:07;;;;;;;0.70;0.70;;;9.20;58.30;;;;;;2068847;28;20022;-75
2020/12/27 04:04:08;;;;;;;1.30;0.75;;;9.20;58.20;;;;;;2080769;28;20121;-74
2020/12/27 04:05:08;;;;;;;0.85;0.60;;;9.20;58.20;;;;;;2080874;28;20029;-76
2020/12/27 04:06:09;;;;;;;0.70;0.70;;;9.20;58.30;;;;;;2080935;28;20044;-73
2020/12/27 04:07:09;;;;;;;0.57;0.57;;;9.20;58.20;;;;;;2081121;28;20017;-73
2020/12/27 04:08:10;;;;;;;0.60;0.60;;;9.20;58.20;;;;;;2081107;28;20443;-74
2020/12/27 04:09:11;;;;;;;0.60;0.60;;;9.20;58.20;;;;;;2079306;28;20041;-75
2020/12/27 04:10:11;;;;;;;0.60;0.60;;;9.20;58.20;;;;;;2080516;28;20068;-75
2020/12/27 04:11:12;;;;;;;0.70;0.70;;;9.20;58.20;;;;;;2080918;28;20053;-76
2020/12/27 04:12:13;;;;;;;1.85;0.80;;;9.20;58.20;;;;;;2080480;28;20024;-75
2020/12/27 04:13:14;;;;;;;0.60;0.60;;;9.20;58.30;;;;;;2080282;28;20029;-76
2020/12/27 04:14:14;;;;;;;0.70;0.70;;;9.30;58.40;;;;;;2080691;28;20030;-73
2020/12/27 04:15:15;;;;;;;0.70;0.70;;;9.30;58.80;;;;;;2080159;28;20018;-73
2020/12/27 04:16:15;;;;;;;0.60;0.60;;;9.30;58.30;;;;;;2071572;28;20028;-74
2020/12/27 04:17:16;;;;;;;0.50;0.50;;;9.30;58.30;;;;;;2072296;28;20030;-73
2020/12/27 04:18:17;;;;;;;0.70;0.70;;;9.30;58.30;;;;;;2081398;28;20045;-75
2020/12/27 04:19:17;;;;;;;0.73;0.73;;;9.30;58.30;;;;;;2080364;28;20071;-74
2020/12/27 04:20:18;;;;;;;0.68;0.68;;;9.30;58.20;;;;;;2080844;28;20032;-75
2020/12/27 04:21:18;;;;;;;0.70;0.70;;;9.30;58.20;;;;;;2072747;28;20025;-75
2020/12/27 04:22:19;;;;;;;0.68;0.68;;;9.30;58.20;;;;;;2073012;28;20078;-76
2020/12/27 04:23:19;;;;;;;1.63;0.70;;;9.30;58.20;;;;;;2080798;28;20079;-75
2020/12/27 04:24:20;;;;;;;0.60;0.60;;;9.30;58.20;;;;;;2081049;28;20032;-74
2020/12/27 04:25:21;;;;;;;0.70;0.70;;;9.30;58.20;;;;;;2080946;28;20807;-74
2020/12/27 04:26:22;;;;;;;0.70;0.70;;;9.30;58.20;;;;;;2080273;28;20456;-75
2020/12/27 04:27:22;;;;;;;0.70;0.70;;;9.30;58.20;;;;;;2072235;28;20030;-75
2020/12/27 04:28:23;;;;;;;0.73;0.73;;;9.30;58.20;;;;;;2072124;28;20679;-75
2020/12/27 04:29:23;;;;;;;0.60;0.60;;;9.30;58.20;;;;;;2080008;28;20582;-75
2020/12/27 04:30:24;;;;;;;0.60;0.60;;;9.30;58.30;;;;;;2080424;28;20029;-74
2020/12/27 04:31:25;;;;;;;0.60;0.60;;;9.30;58.30;;;;;;2080452;28;20029;-74
2020/12/27 04:32:26;;;;;;;0.57;0.57;;;9.30;58.30;;;;;;2080825;28;20025;-76
2020/12/27 04:33:27;;;;;;;0.60;0.60;;;9.30;58.20;;;;;;2080454;28;20029;-76
2020/12/27 04:34:27;;;;;;;0.50;0.50;;;9.40;58.30;;;;;;2080475;28;20826;-75
2020/12/27 04:35:28;;;;;;;0.60;0.60;;;9.30;58.20;;;;;;2080339;28;20044;-74
2020/12/27 04:36:28;;;;;;;0.60;0.60;;;9.30;58.20;;;;;;2080788;28;20025;-75
2020/12/27 04:37:29;;;;;;;0.70;0.70;;;9.30;58.20;;;;;;2081184;28;20040;-74
2020/12/27 04:38:30;;;;;;;0.50;0.50;;;9.30;58.20;;;;;;2079961;28;20104;-75
2020/12/27 04:39:30;;;;;;;0.68;0.68;;;9.30;58.20;;;;;;2080721;28;20031;-74
2020/12/27 04:40:31;;;;;;;0.60;0.60;;;9.30;58.20;;;;;;2080488;28;20029;-74
2020/12/27 04:41:31;;;;;;;0.60;0.60;;;9.40;58.30;;;;;;2080511;28;20013;-74
2020/12/27 04:42:32;;;;;;;0.50;0.50;;;9.40;58.30;;;;;;2080031;28;20108;-76
2020/12/27 04:43:35;;;;;;;0.60;0.60;;;9.40;58.40;;;;;;2081408;28;20535;-75
2020/12/27 04:44:38;;;;;;;0.50;0.50;;;9.40;58.40;;;;;;2072210;28;20017;-74
2020/12/27 04:45:40;;;;;;;0.60;0.60;;;9.40;58.40;;;;;;2071509;28;20033;-73
2020/12/27 04:46:41;;;;;;;0.50;0.50;;;9.40;58.40;;;;;;2080001;28;20103;-74
2020/12/27 04:47:41;;;;;;;0.50;0.50;;;9.40;58.40;;;;;;2080126;28;20037;-74
2020/12/27 04:48:44;;;;;;;0.60;0.60;;;9.40;58.30;;;;;;2069226;28;20085;-74
2020/12/27 04:49:45;;;;;;;0.63;0.63;;;9.40;58.30;;;;;;2069426;28;20116;-76
2020/12/27 04:50:45;;;;;;;0.57;0.57;;;9.40;58.30;;;;;;2079718;28;20021;-76
2020/12/27 04:51:48;;;;;;;0.60;0.60;;;9.40;58.30;;;;;;2080708;28;20032;-76
2020/12/27 04:52:48;;;;;;;0.68;0.68;;;9.40;58.30;;;;;;2080311;28;20061;-78
2020/12/27 04:53:49;;;;;;;0.73;0.73;;;9.40;58.30;;;;;;2080357;28;20025;-75
2020/12/27 04:54:50;;;;;;;0.63;0.63;;;9.40;58.30;;;;;;2080882;28;20029;-77
2020/12/27 04:55:52;;;;;;;0.60;0.60;;;9.40;58.30;;;;;;2082479;28;20074;-76
2020/12/27 04:56:54;;;;;;;0.68;0.68;;;9.40;58.30;;;;;;2080788;28;20120;-76
2020/12/27 04:57:58;;;;;;;0.60;0.60;;;9.40;58.30;;;;;;2080436;28;20029;-77
2020/12/27 04:58:59;;;;;;;1.15;0.60;;;9.40;58.30;;;;;;2069360;28;20026;-75
2020/12/27 05:00:04;;;;;;;0.55;0.50;;;9.40;58.30;;;;;;2069851;28;20026;-76
2020/12/27 05:01:08;;;;;;;0.60;0.60;;;9.40;58.20;;;;;;2082802;28;20192;-77
2020/12/27 05:02:08;;;;;;;0.50;0.50;;;9.50;58.30;;;;;;2075560;28;20697;-77
2020/12/27 05:03:09;;;;;;;0.60;0.60;;;9.40;58.30;;;;;;2073648;28;20034;-77
2020/12/27 05:04:10;;;;;;;0.57;0.57;;;9.40;58.30;;;;;;2070032;28;20101;-76
2020/12/27 05:05:14;;;;;;;0.52;0.52;;;9.50;58.30;;;;;;2070125;28;20116;-75
2020/12/27 05:06:15;;;;;;;0.60;0.60;;;9.50;58.30;;;;;;2083303;28;20018;-76
2020/12/27 05:07:22;;;;;;;0.60;0.60;;;9.40;58.30;;;;;;2081730;28;20022;-77
2020/12/27 05:08:23;;;;;;;0.60;0.60;;;9.40;58.30;;;;;;2080866;28;20026;-76
2020/12/27 05:09:27;;;;;;;0.60;0.60;;;9.50;58.30;;;;;;2080327;28;20037;-75
2020/12/27 05:10:28;;;;;;;0.60;0.60;;;9.50;58.30;;;;;;2079717;28;20037;-74
2020/12/27 05:11:29;;;;;;;0.50;0.50;;;9.50;58.30;;;;;;2079753;28;20072;-77
2020/12/27 05:12:31;;;;;;;0.60;0.60;;;9.50;58.30;;;;;;2080282;28;20022;-73
2020/12/27 05:13:32;;;;;;;0.60;0.60;;;9.50;58.30;;;;;;2079531;28;20048;-73
2020/12/27 05:14:32;;;;;;;0.50;0.50;;;9.50;58.30;;;;;;2080223;28;20108;-74
2020/12/27 05:15:35;;;;;;;0.50;0.50;;;9.50;58.30;;;;;;2080598;28;20029;-78
2020/12/27 05:16:35;;;;;;;0.60;0.60;;;9.50;58.30;;;;;;2079903;28;20033;-75
2020/12/27 05:17:36;;;;;;;0.68;0.68;;;9.50;58.30;;;;;;2080253;28;20420;-75
2020/12/27 05:18:37;;;;;;;0.60;0.60;;;9.50;58.30;;;;;;2072500;28;20018;-76
2020/12/27 05:19:37;;;;;;;0.55;0.55;;;9.50;58.30;;;;;;2071594;28;20056;-75
2020/12/27 05:20:43;;;;;;;0.60;0.60;;;9.50;58.30;;;;;;2080894;28;20022;-76
2020/12/27 05:21:43;;;;;;;0.82;0.57;;;9.50;58.30;;;;;;2073036;28;20040;-76
2020/12/27 05:22:44;;;;;;;0.50;0.50;;;9.50;58.30;;;;;;2063878;28;20078;-74
2020/12/27 05:23:46;;;;;;;0.50;0.50;;;9.50;58.30;;;;;;2063454;28;20030;-74